createdAt,value
2022-08-01T00:01:16.984Z,13.84
2022-08-01T00:04:19.125Z,13.92
2022-08-01T00:07:21.092Z,13.39
2022-08-01T00:10:23.266Z,13.12
2022-08-01T00:13:25.391Z,13.00
2022-08-01T00:16:27.523Z,12.87
2022-08-01T00:19:29.683Z,12.86
2022-08-01T00:22:32.459Z,12.82
2022-08-01T00:25:34.773Z,12.83
2022-08-01T00:28:36.582Z,12.74
2022-08-01T00:31:38.410Z,12.70
2022-08-01T00:34:40.515Z,12.67
2022-08-01T00:37:42.339Z,12.65
2022-08-01T00:40:44.360Z,12.67
2022-08-01T00:43:46.392Z,12.66
2022-08-01T00:46:48.193Z,12.63
2022-08-01T00:49:50.095Z,12.64
2022-08-01T00:52:52.343Z,12.68
2022-08-01T00:55:54.692Z,12.68
2022-08-01T00:58:56.857Z,12.78
2022-08-01T01:01:59.344Z,12.83
2022-08-01T01:05:03.975Z,12.86
2022-08-01T01:08:21.010Z,12.84
2022-08-01T01:11:55.269Z,12.84
2022-08-01T01:15:26.873Z,12.83
2022-08-01T01:18:33.576Z,12.82
2022-08-01T01:21:58.850Z,12.75
2022-08-01T01:25:28.219Z,12.81
2022-08-01T01:28:54.763Z,12.84
2022-08-01T01:31:57.586Z,12.87
2022-08-01T01:35:00.026Z,12.98
2022-08-01T01:38:10.547Z,13.09
2022-08-01T01:41:13.358Z,13.09
2022-08-01T01:44:16.526Z,12.96
2022-08-01T01:47:18.790Z,12.95
2022-08-01T01:50:25.016Z,12.99
2022-08-01T01:53:37.665Z,13.02
2022-08-01T01:56:49.753Z,12.95
2022-08-01T01:59:52.504Z,12.87
2022-08-01T02:02:55.338Z,12.89
2022-08-01T02:05:58.129Z,12.84
2022-08-01T02:09:00.297Z,12.85
2022-08-01T02:12:09.214Z,12.87
2022-08-01T02:15:12.786Z,12.76
2022-08-01T02:18:16.367Z,12.66
2022-08-01T02:21:24.342Z,12.60
2022-08-01T02:24:39.875Z,12.58
2022-08-01T02:27:46.869Z,12.53
2022-08-01T02:30:48.706Z,12.38
2022-08-01T02:34:00.219Z,12.36
2022-08-01T02:37:05.818Z,12.30
2022-08-01T02:40:09.572Z,12.32
2022-08-01T02:43:19.522Z,12.34
2022-08-01T02:46:25.678Z,12.39
2022-08-01T02:49:28.808Z,12.44
2022-08-01T02:52:31.692Z,12.29
2022-08-01T02:55:33.959Z,12.32
2022-08-01T02:58:38.455Z,12.34
2022-08-01T03:01:42.170Z,12.33
2022-08-01T03:04:46.007Z,12.28
2022-08-01T03:07:48.940Z,12.22
2022-08-01T03:10:51.886Z,12.23
2022-08-01T03:13:55.381Z,12.30
2022-08-01T03:16:57.552Z,12.35
2022-08-01T03:20:00.286Z,12.43
2022-08-01T03:23:07.178Z,12.31
2022-08-01T03:26:09.448Z,12.37
2022-08-01T03:29:17.710Z,12.58
2022-08-01T03:32:20.881Z,12.56
2022-08-01T03:35:23.633Z,12.56
2022-08-01T03:38:27.625Z,12.71
2022-08-01T03:41:34.208Z,12.78
2022-08-01T03:44:40.134Z,12.85
2022-08-01T03:47:44.862Z,12.65
2022-08-01T03:50:52.659Z,12.57
2022-08-01T03:53:57.354Z,12.65
2022-08-01T03:56:59.613Z,12.76
2022-08-01T04:00:02.445Z,12.79
2022-08-01T04:03:14.785Z,12.72
2022-08-01T04:06:16.693Z,12.97
2022-08-01T04:09:19.152Z,12.83
2022-08-01T04:12:22.033Z,13.15
2022-08-01T04:15:24.935Z,13.37
2022-08-01T04:18:27.206Z,13.50
2022-08-01T04:21:30.311Z,13.60
2022-08-01T04:24:33.945Z,13.44
2022-08-01T04:27:50.527Z,13.79
2022-08-01T04:31:01.639Z,13.78
2022-08-01T04:34:06.287Z,13.97
2022-08-01T04:37:11.232Z,14.10
2022-08-01T04:40:15.222Z,14.45
2022-08-01T04:43:17.412Z,14.38
2022-08-01T04:46:20.155Z,14.45
2022-08-01T04:49:29.999Z,14.58
2022-08-01T04:52:35.829Z,14.66
2022-08-01T04:55:37.734Z,14.30
2022-08-01T04:58:42.006Z,14.02
2022-08-01T05:01:43.990Z,13.85
2022-08-01T05:04:46.948Z,13.76
2022-08-01T05:07:48.873Z,13.66
2022-08-01T05:10:51.058Z,13.53
2022-08-01T05:13:53.693Z,13.44
2022-08-01T05:16:55.985Z,13.44
2022-08-01T05:19:57.960Z,13.32
2022-08-01T05:23:00.100Z,13.39
2022-08-01T05:26:06.302Z,13.49
2022-08-01T05:29:08.540Z,13.55
2022-08-01T05:32:10.961Z,13.54
2022-08-01T05:35:15.249Z,13.63
2022-08-01T05:38:17.702Z,13.64
2022-08-01T05:41:19.843Z,13.75
2022-08-01T05:44:21.851Z,13.72
2022-08-01T05:47:24.101Z,13.78
2022-08-01T05:50:26.505Z,13.74
2022-08-01T05:53:28.427Z,13.68
2022-08-01T05:56:32.302Z,13.97
2022-08-01T05:59:34.880Z,14.13
2022-08-01T06:02:41.710Z,14.22
2022-08-01T06:05:43.807Z,14.19
2022-08-01T06:08:45.733Z,14.31
2022-08-01T06:11:47.766Z,14.42
2022-08-01T06:14:49.960Z,14.39
2022-08-01T06:17:52.096Z,14.57
2022-08-01T06:20:54.125Z,14.47
2022-08-01T06:23:56.177Z,14.59
2022-08-01T06:26:58.397Z,14.68
2022-08-01T06:30:00.668Z,14.69
2022-08-01T06:33:04.063Z,14.84
2022-08-01T06:36:06.304Z,14.81
2022-08-01T06:39:08.417Z,14.81
2022-08-01T06:42:11.030Z,14.81
2022-08-01T06:45:14.135Z,15.02
2022-08-01T06:48:16.220Z,15.18
2022-08-01T06:51:21.078Z,15.33
2022-08-01T06:54:23.781Z,15.49
2022-08-01T06:57:25.825Z,15.68
2022-08-01T07:00:28.510Z,15.75
2022-08-01T07:03:54.084Z,15.74
2022-08-01T07:06:53.003Z,15.67
2022-08-01T07:09:55.179Z,15.95
2022-08-01T07:12:57.270Z,16.22
2022-08-01T07:15:59.537Z,16.74
2022-08-01T07:19:03.392Z,17.09
2022-08-01T07:22:05.715Z,17.63
2022-08-01T07:25:09.202Z,18.53
2022-08-01T07:28:11.123Z,18.51
2022-08-01T07:31:13.770Z,18.64
2022-08-01T07:34:15.720Z,19.15
2022-08-01T07:37:19.353Z,19.59
2022-08-01T07:40:40.482Z,19.82
2022-08-01T07:43:47.350Z,20.00
2022-08-01T07:46:52.565Z,20.37
2022-08-01T07:50:00.964Z,20.46
2022-08-01T07:53:04.787Z,20.57
2022-08-01T07:56:07.557Z,20.90
2022-08-01T07:59:10.764Z,20.88
2022-08-01T08:02:15.158Z,21.26
2022-08-01T08:05:58.008Z,21.26
2022-08-01T08:08:44.413Z,21.12
2022-08-01T08:11:48.437Z,21.18
2022-08-01T08:14:50.911Z,21.36
2022-08-01T08:17:55.279Z,21.70
2022-08-01T08:20:57.375Z,21.93
2022-08-01T08:24:17.863Z,22.25
2022-08-01T08:27:19.809Z,22.84
2022-08-01T08:30:22.036Z,23.11
2022-08-01T08:33:24.696Z,23.40
2022-08-01T08:36:34.725Z,23.64
2022-08-01T08:39:42.010Z,23.74
2022-08-01T08:42:44.502Z,23.67
2022-08-01T08:45:59.517Z,24.33
2022-08-01T08:49:04.876Z,25.11
2022-08-01T08:52:09.461Z,25.22
2022-08-01T08:55:15.507Z,25.38
2022-08-01T08:58:19.451Z,25.43
2022-08-01T09:01:22.945Z,24.87
2022-08-01T09:04:26.629Z,25.00
2022-08-01T09:07:28.837Z,24.63
2022-08-01T09:10:30.816Z,23.71
2022-08-01T09:13:33.046Z,23.63
2022-08-01T09:16:47.959Z,23.30
2022-08-01T09:19:54.653Z,23.34
2022-08-01T09:22:56.775Z,23.89
2022-08-01T09:25:59.269Z,24.79
2022-08-01T09:29:05.618Z,25.11
2022-08-01T09:32:13.868Z,25.36
2022-08-01T09:35:36.474Z,24.92
2022-08-01T09:38:50.871Z,24.77
2022-08-01T09:41:54.859Z,24.92
2022-08-01T09:44:58.366Z,24.96
2022-08-01T09:48:07.660Z,24.89
2022-08-01T09:51:14.143Z,24.96
2022-08-01T09:54:36.096Z,25.10
2022-08-01T09:57:40.262Z,24.86
2022-08-01T10:00:45.571Z,24.82
2022-08-01T10:03:47.898Z,25.55
2022-08-01T10:06:55.575Z,26.61
2022-08-01T10:10:11.489Z,26.36
2022-08-01T10:13:13.579Z,26.89
2022-08-01T10:16:17.140Z,26.45
2022-08-01T10:19:19.905Z,26.44
2022-08-01T10:22:25.003Z,26.59
2022-08-01T10:25:42.737Z,26.36
2022-08-01T10:28:49.655Z,26.71
2022-08-01T10:31:51.916Z,27.38
2022-08-01T10:34:55.763Z,27.29
2022-08-01T10:37:59.597Z,27.14
2022-08-01T10:41:06.514Z,27.08
2022-08-01T10:44:10.633Z,27.01
2022-08-01T10:47:18.143Z,27.05
2022-08-01T10:50:28.642Z,27.02
2022-08-01T10:53:42.837Z,27.15
2022-08-01T10:56:50.657Z,26.76
2022-08-01T11:00:01.178Z,27.20
2022-08-01T11:03:05.062Z,27.15
2022-08-01T11:06:08.857Z,27.27
2022-08-01T11:09:16.397Z,27.34
2022-08-01T11:12:24.463Z,27.64
2022-08-01T11:15:30.862Z,27.43
2022-08-01T11:18:33.985Z,27.45
2022-08-01T11:22:01.642Z,27.71
2022-08-01T11:25:04.616Z,28.57
2022-08-01T11:28:28.467Z,28.76
2022-08-01T11:31:37.716Z,28.75
2022-08-01T11:34:56.833Z,27.61
2022-08-01T11:38:25.311Z,27.28
2022-08-01T11:41:38.184Z,27.44
2022-08-01T11:44:51.498Z,27.62
2022-08-01T11:47:53.430Z,27.69
2022-08-01T11:50:58.019Z,27.63
2022-08-01T11:54:04.595Z,27.64
2022-08-01T11:57:17.066Z,27.75
2022-08-01T12:00:19.982Z,28.03
2022-08-01T12:03:33.479Z,28.88
2022-08-01T12:06:36.368Z,28.18
2022-08-01T12:09:38.507Z,27.97
2022-08-01T12:12:49.725Z,28.33
2022-08-01T12:15:56.485Z,28.30
2022-08-01T12:18:58.735Z,28.63
2022-08-01T12:22:14.962Z,28.34
2022-08-01T12:25:18.911Z,29.20
2022-08-01T12:28:21.045Z,28.69
2022-08-01T12:31:33.096Z,28.82
2022-08-01T12:34:35.569Z,29.04
2022-08-01T12:37:49.119Z,29.47
2022-08-01T12:40:52.858Z,29.43
2022-08-01T12:43:55.313Z,29.79
2022-08-01T12:46:57.823Z,29.26
2022-08-01T12:49:59.990Z,28.82
2022-08-01T12:53:03.264Z,28.76
2022-08-01T12:56:05.300Z,29.70
2022-08-01T12:59:27.576Z,30.59
2022-08-01T13:02:34.458Z,29.47
2022-08-01T13:05:42.819Z,29.28
2022-08-01T13:08:45.009Z,29.56
2022-08-01T13:11:56.264Z,29.96
2022-08-01T13:15:19.741Z,29.71
2022-08-01T13:18:29.848Z,30.29
2022-08-01T13:21:34.455Z,29.04
2022-08-01T13:25:22.449Z,30.62
2022-08-01T13:28:28.305Z,30.03
2022-08-01T13:31:34.556Z,30.06
2022-08-01T13:34:36.571Z,29.26
2022-08-01T13:37:39.548Z,28.92
2022-08-01T13:40:41.489Z,28.63
2022-08-01T13:43:58.390Z,28.28
2022-08-01T13:47:14.919Z,28.34
2022-08-01T13:50:18.858Z,28.31
2022-08-01T13:53:20.902Z,27.99
2022-08-01T13:56:22.914Z,27.53
2022-08-01T13:59:24.861Z,27.30
2022-08-01T14:02:30.155Z,27.19
2022-08-01T14:05:32.326Z,27.13
2022-08-01T14:08:34.501Z,27.68
2022-08-01T14:11:37.148Z,28.22
2022-08-01T14:14:39.580Z,28.52
2022-08-01T14:17:47.600Z,28.09
2022-08-01T14:20:50.203Z,27.55
2022-08-01T14:23:55.953Z,27.68
2022-08-01T14:26:58.286Z,27.65
2022-08-01T14:30:03.774Z,27.19
2022-08-01T14:33:06.198Z,27.01
2022-08-01T14:36:31.070Z,27.23
2022-08-01T14:39:30.474Z,27.12
2022-08-01T14:42:32.660Z,27.12
2022-08-01T14:45:34.862Z,27.33
2022-08-01T14:48:37.085Z,28.13
2022-08-01T14:51:39.392Z,28.29
2022-08-01T14:54:41.495Z,28.39
2022-08-01T14:57:43.829Z,28.13
2022-08-01T15:00:46.665Z,28.17
2022-08-01T15:03:49.340Z,28.10
2022-08-01T15:06:51.891Z,28.03
2022-08-01T15:09:54.183Z,27.92
2022-08-01T15:12:56.766Z,27.95
2022-08-01T15:15:59.815Z,28.15
2022-08-01T15:19:02.948Z,28.20
2022-08-01T15:22:05.346Z,28.39
2022-08-01T15:25:07.932Z,28.06
2022-08-01T15:28:11.311Z,27.45
2022-08-01T15:31:14.411Z,27.21
2022-08-01T15:34:16.759Z,26.80
2022-08-01T15:37:18.863Z,26.62
2022-08-01T15:40:20.834Z,26.54
2022-08-01T15:43:22.921Z,26.45
2022-08-01T15:46:25.543Z,26.71
2022-08-01T15:49:27.773Z,26.57
2022-08-01T15:52:31.970Z,26.30
2022-08-01T15:55:38.592Z,26.50
2022-08-01T15:58:40.528Z,26.18
2022-08-01T16:01:43.074Z,26.67
2022-08-01T16:04:45.315Z,26.47
2022-08-01T16:07:58.029Z,26.35
2022-08-01T16:11:03.862Z,26.20
2022-08-01T16:14:06.776Z,26.37
2022-08-01T16:17:09.064Z,26.60
2022-08-01T16:20:11.603Z,26.77
2022-08-01T16:23:15.374Z,26.99
2022-08-01T16:26:27.058Z,26.91
2022-08-01T16:29:31.517Z,26.38
2022-08-01T16:32:40.429Z,26.24
2022-08-01T16:35:47.523Z,25.96
2022-08-01T16:38:52.336Z,25.62
2022-08-01T16:41:55.124Z,25.27
2022-08-01T16:45:03.989Z,24.82
2022-08-01T16:48:23.509Z,24.71
2022-08-01T16:51:25.700Z,24.51
2022-08-01T16:54:28.406Z,24.30
2022-08-01T16:57:36.950Z,24.15
2022-08-01T17:00:42.991Z,24.02
2022-08-01T17:03:53.081Z,23.85
2022-08-01T17:06:58.043Z,23.75
2022-08-01T17:10:01.248Z,23.70
2022-08-01T17:13:04.146Z,23.69
2022-08-01T17:16:08.104Z,23.62
2022-08-01T17:19:10.655Z,23.59
2022-08-01T17:22:13.445Z,23.55
2022-08-01T17:25:16.230Z,23.47
2022-08-01T17:28:18.636Z,23.59
2022-08-01T17:31:20.500Z,23.68
2022-08-01T17:34:22.470Z,23.82
2022-08-01T17:37:26.232Z,23.77
2022-08-01T17:40:39.996Z,23.50
2022-08-01T17:43:42.465Z,23.46
2022-08-01T17:46:44.766Z,23.45
2022-08-01T17:49:54.841Z,23.47
2022-08-01T17:52:57.270Z,23.25
2022-08-01T17:56:00.943Z,22.85
2022-08-01T17:59:03.118Z,22.63
2022-08-01T18:02:05.364Z,22.48
2022-08-01T18:05:10.659Z,22.33
2022-08-01T18:08:13.016Z,22.25
2022-08-01T18:11:17.357Z,22.22
2022-08-01T18:14:19.736Z,22.06
2022-08-01T18:17:22.387Z,21.88
2022-08-01T18:20:25.951Z,21.67
2022-08-01T18:23:27.964Z,21.52
2022-08-01T18:26:30.205Z,21.37
2022-08-01T18:29:46.698Z,21.36
2022-08-01T18:32:50.217Z,21.32
2022-08-01T18:35:54.032Z,21.27
2022-08-01T18:38:56.244Z,21.26
2022-08-01T18:42:00.768Z,21.32
2022-08-01T18:45:03.037Z,21.19
2022-08-01T18:48:05.734Z,21.22
2022-08-01T18:51:08.564Z,21.05
2022-08-01T18:54:14.946Z,20.98
2022-08-01T18:57:22.922Z,20.89
2022-08-01T19:00:24.848Z,20.64
2022-08-01T19:03:26.957Z,20.75
2022-08-01T19:06:29.227Z,20.78
2022-08-01T19:09:31.732Z,20.86
2022-08-01T19:12:33.841Z,20.86
2022-08-01T19:15:36.723Z,20.83
2022-08-01T19:18:40.764Z,20.83
2022-08-01T19:21:45.042Z,20.70
2022-08-01T19:24:47.791Z,20.71
2022-08-01T19:27:50.799Z,20.52
2022-08-01T19:30:53.920Z,20.35
2022-08-01T19:33:58.211Z,20.33
2022-08-01T19:37:00.265Z,20.29
2022-08-01T19:40:03.801Z,20.29
2022-08-01T19:43:07.288Z,20.26
2022-08-01T19:46:17.216Z,20.21
2022-08-01T19:49:22.638Z,20.18
2022-08-01T19:52:26.843Z,20.20
2022-08-01T19:55:32.724Z,20.18
2022-08-01T19:58:39.884Z,20.12
2022-08-01T20:01:42.639Z,20.06
2022-08-01T20:04:44.815Z,20.04
2022-08-01T20:07:47.443Z,20.04
2022-08-01T20:10:49.919Z,20.00
2022-08-01T20:13:52.157Z,19.98
2022-08-01T20:16:56.000Z,19.94
2022-08-01T20:19:58.376Z,19.92
2022-08-01T20:23:01.355Z,19.88
2022-08-01T20:26:04.529Z,19.85
2022-08-01T20:29:07.218Z,19.98
2022-08-01T20:32:10.674Z,19.95
2022-08-01T20:35:12.711Z,20.03
2022-08-01T20:38:16.403Z,20.05
2022-08-01T20:41:19.696Z,19.87
2022-08-01T20:44:23.186Z,19.77
2022-08-01T20:47:25.958Z,19.71
2022-08-01T20:50:53.737Z,19.69
2022-08-01T20:53:57.048Z,19.71
2022-08-01T20:57:08.273Z,19.77
2022-08-01T21:00:11.487Z,19.85
2022-08-01T21:03:24.462Z,19.78
2022-08-01T21:06:31.492Z,19.81
2022-08-01T21:09:39.335Z,19.78
2022-08-01T21:13:20.547Z,19.70
2022-08-01T21:16:30.113Z,19.69
2022-08-01T21:19:34.811Z,19.66
2022-08-01T21:23:16.256Z,19.55
2022-08-01T21:26:21.110Z,19.66
2022-08-01T21:29:25.365Z,19.58
2022-08-01T21:32:30.166Z,19.57
2022-08-01T21:35:33.212Z,19.56
2022-08-01T21:38:36.805Z,19.46
2022-08-01T21:41:56.070Z,19.39
2022-08-01T21:45:03.650Z,19.38
2022-08-01T21:48:06.773Z,19.31
2022-08-01T21:51:18.505Z,19.23
2022-08-01T21:54:29.726Z,19.20
2022-08-01T21:57:56.122Z,19.21
2022-08-01T22:01:06.964Z,19.12
2022-08-01T22:04:14.099Z,19.07
2022-08-01T22:07:18.604Z,19.01
2022-08-01T22:10:21.307Z,18.92
2022-08-01T22:13:24.333Z,18.94
2022-08-01T22:16:27.186Z,18.90
2022-08-01T22:19:44.150Z,18.98
2022-08-01T22:22:52.099Z,19.01
2022-08-01T22:25:56.680Z,19.00
2022-08-01T22:28:59.186Z,18.98
2022-08-01T22:32:04.600Z,18.96
2022-08-01T22:35:10.817Z,18.94
2022-08-01T22:38:13.519Z,18.90
2022-08-01T22:41:22.494Z,18.90
2022-08-01T22:44:38.214Z,18.87
2022-08-01T22:47:54.573Z,18.88
2022-08-01T22:51:07.262Z,18.83
2022-08-01T22:54:14.430Z,18.78
2022-08-01T22:57:31.356Z,18.67
2022-08-01T23:00:36.295Z,18.68
2022-08-01T23:03:41.744Z,18.64
2022-08-01T23:06:46.079Z,18.63
2022-08-01T23:09:53.921Z,18.52
2022-08-01T23:12:56.942Z,18.49
2022-08-01T23:16:00.266Z,18.56
2022-08-01T23:19:04.437Z,18.57
2022-08-01T23:22:06.750Z,18.52
2022-08-01T23:25:11.487Z,18.47
2022-08-01T23:28:14.870Z,18.39
2022-08-01T23:31:17.524Z,18.39
2022-08-01T23:34:20.242Z,18.39
2022-08-01T23:37:23.384Z,18.40
2022-08-01T23:40:25.990Z,18.42
2022-08-01T23:43:28.079Z,18.41
2022-08-01T23:46:30.538Z,18.44
2022-08-01T23:49:33.543Z,18.44
2022-08-01T23:52:56.569Z,18.36
2022-08-01T23:56:02.750Z,18.40
2022-08-01T23:59:06.405Z,18.25
